Acme, North Carolina
Current Conditions -  °F | °C
As of 12:53 PM on Thursday 27 Nov 2014 (Local Time) from KILM Reporting Station
Clear Clear  
Wind Chill: 55°   Ceiling: Unl
Heat Index: 55°   Visibility: 10mi
Dew Point: 37°   Wind: 17mph
Humidity: 51%   Direction: 260°W
Pressure: 30"   Gusts: NA
Location:  34.3494°N, 78.2681°W
Report Text: KILM 271753Z 26015KT 10SM CLR 13/03 A3000 RMK AO2 SLP158 T01280028 10128 20033 56014
Loading
Personal Weather Stations






























Interactive Weather Map New forecast layout! Learn more

10-Day Weather Forecast

Advertisements
Track Severe Weather on mobile